createdAt,value
2023-03-21T00:04:44.511Z,8.10
2023-03-21T00:09:57.012Z,9.70
2023-03-21T00:15:10.407Z,9.20
2023-03-21T00:20:15.103Z,7.90
2023-03-21T00:25:18.466Z,8.60
2023-03-21T00:30:21.572Z,8.80
2023-03-21T00:40:49.368Z,7.70
2023-03-21T00:45:52.331Z,8.70
2023-03-21T00:50:57.360Z,6.70
2023-03-21T00:56:00.373Z,7.90
2023-03-21T01:01:04.629Z,6.50
2023-03-21T01:06:08.109Z,7.50
2023-03-21T01:11:17.748Z,8.30
2023-03-21T01:16:21.042Z,7.90
2023-03-21T01:21:24.512Z,8.20
2023-03-21T01:26:28.290Z,8.20
2023-03-21T01:31:31.361Z,7.30
2023-03-21T01:36:34.557Z,6.50
2023-03-21T01:41:43.391Z,8.40
2023-03-21T01:47:11.492Z,9.00
2023-03-21T01:52:33.357Z,7.90
2023-03-21T01:58:02.061Z,9.10
2023-03-21T02:03:16.831Z,7.90
2023-03-21T02:08:25.831Z,10.40
2023-03-21T02:13:36.561Z,7.40
2023-03-21T02:18:46.332Z,7.60
2023-03-21T02:23:52.102Z,11.00
2023-03-21T02:29:38.113Z,7.80
2023-03-21T02:35:06.924Z,9.40
2023-03-21T02:40:30.359Z,10.50
2023-03-21T02:45:50.849Z,12.60
2023-03-21T02:50:57.122Z,14.40
2023-03-21T02:56:01.962Z,13.70
2023-03-21T03:01:07.537Z,13.80
2023-03-21T03:06:29.836Z,15.50
2023-03-21T03:11:43.035Z,14.80
2023-03-21T03:17:07.746Z,12.50
2023-03-21T03:22:16.348Z,11.20
2023-03-21T03:27:26.152Z,10.30
2023-03-21T03:32:34.419Z,10.40
2023-03-21T03:37:40.815Z,11.60
2023-03-21T03:42:49.769Z,10.50
2023-03-21T03:47:57.428Z,12.20
2023-03-21T03:53:29.212Z,13.80
2023-03-21T03:58:44.518Z,9.70
2023-03-21T04:04:01.000Z,9.90
2023-03-21T04:09:20.941Z,12.80
2023-03-21T04:14:35.695Z,12.10
2023-03-21T04:19:46.455Z,11.10
2023-03-21T04:24:49.412Z,11.70
2023-03-21T04:29:52.430Z,12.30
2023-03-21T04:34:55.424Z,15.10
2023-03-21T04:39:58.528Z,12.10
2023-03-21T04:45:02.483Z,10.40
2023-03-21T04:50:06.171Z,13.70
2023-03-21T04:55:10.415Z,21.90
2023-03-21T05:00:15.109Z,33.60
2023-03-21T05:05:18.168Z,16.00
2023-03-21T05:10:21.379Z,14.70
2023-03-21T05:15:24.386Z,12.00
2023-03-21T05:20:27.486Z,12.30
2023-03-21T05:25:38.476Z,11.90
2023-03-21T05:30:41.653Z,13.20
2023-03-21T05:35:44.741Z,12.60
2023-03-21T05:40:48.817Z,11.60
2023-03-21T05:45:52.274Z,13.00
2023-03-21T05:50:55.560Z,12.80
2023-03-21T05:55:58.578Z,12.70
2023-03-21T06:01:01.787Z,14.30
2023-03-21T06:06:05.545Z,12.80
2023-03-21T06:11:23.797Z,10.50
2023-03-21T06:16:26.895Z,13.20
2023-03-21T06:21:29.995Z,10.30
2023-03-21T06:26:33.106Z,14.20
2023-03-21T06:31:36.457Z,12.60
2023-03-21T06:36:39.531Z,18.40
2023-03-21T06:41:42.523Z,14.20
2023-03-21T06:46:45.968Z,13.30
2023-03-21T06:51:49.257Z,11.10
2023-03-21T06:56:52.888Z,12.90
2023-03-21T07:01:56.093Z,12.40
2023-03-21T07:06:59.215Z,13.80
2023-03-21T07:12:02.419Z,13.30
2023-03-21T07:17:05.623Z,14.00
2023-03-21T07:22:09.042Z,14.00
2023-03-21T07:27:12.254Z,17.50
2023-03-21T07:32:15.663Z,13.80
2023-03-21T07:37:18.881Z,14.10
2023-03-21T07:42:22.099Z,13.70
2023-03-21T07:47:25.401Z,16.30
2023-03-21T07:52:28.635Z,15.30
2023-03-21T07:57:32.528Z,15.40
2023-03-21T08:02:35.985Z,12.90
2023-03-21T08:07:39.180Z,12.70
2023-03-21T08:12:42.479Z,14.70
2023-03-21T08:17:45.905Z,14.90
2023-03-21T08:22:50.475Z,12.20
2023-03-21T08:27:53.756Z,10.90
2023-03-21T08:33:01.131Z,8.70
2023-03-21T08:38:05.504Z,11.30
2023-03-21T08:43:08.974Z,9.40
2023-03-21T08:48:12.154Z,9.90
2023-03-21T08:53:15.442Z,10.80
2023-03-21T08:58:18.665Z,8.00
2023-03-21T09:03:21.739Z,15.50
2023-03-21T09:08:25.382Z,14.50
2023-03-21T09:13:28.396Z,14.30
2023-03-21T09:18:50.863Z,10.00
2023-03-21T09:23:56.555Z,12.10
2023-03-21T09:29:00.967Z,17.40
2023-03-21T09:34:04.174Z,16.90
2023-03-21T09:39:07.299Z,8.70
2023-03-21T09:44:38.152Z,9.00
2023-03-21T09:49:49.461Z,13.10
2023-03-21T09:54:54.040Z,7.70
2023-03-21T09:59:59.593Z,13.40
2023-03-21T10:05:22.012Z,10.70
2023-03-21T10:10:29.937Z,11.70
2023-03-21T10:15:33.188Z,9.20
2023-03-21T10:20:39.228Z,7.90
2023-03-21T10:25:55.179Z,8.00
2023-03-21T10:31:07.418Z,9.90
2023-03-21T10:36:17.810Z,7.80
2023-03-21T10:41:21.580Z,10.90
2023-03-21T10:46:27.626Z,7.80
2023-03-21T10:51:33.820Z,10.60
2023-03-21T10:56:40.618Z,9.40
2023-03-21T11:01:50.584Z,11.50
2023-03-21T11:07:07.829Z,13.30
2023-03-21T11:12:14.723Z,9.30
2023-03-21T11:17:17.833Z,8.60
2023-03-21T11:22:23.609Z,8.30
2023-03-21T11:27:31.638Z,8.70
2023-03-21T11:32:38.874Z,9.90
2023-03-21T11:37:47.232Z,9.40
2023-03-21T11:42:53.390Z,10.30
2023-03-21T11:47:59.513Z,13.50
2023-03-21T11:53:18.116Z,9.00
2023-03-21T11:59:09.494Z,8.90
2023-03-21T12:04:39.983Z,12.60
2023-03-21T12:10:28.358Z,14.70
2023-03-21T12:15:55.624Z,13.60
2023-03-21T12:21:30.184Z,10.60
2023-03-21T12:26:50.133Z,8.40
2023-03-21T12:32:25.968Z,9.90
2023-03-21T12:37:45.757Z,8.80
2023-03-21T12:43:27.057Z,10.40
2023-03-21T12:48:44.581Z,11.40
2023-03-21T12:54:22.430Z,9.30
2023-03-21T12:59:38.556Z,10.20
2023-03-21T13:04:48.110Z,12.70
2023-03-21T13:09:51.575Z,11.50
2023-03-21T13:15:33.238Z,10.60
2023-03-21T13:21:02.049Z,10.00
2023-03-21T13:26:11.345Z,9.80
2023-03-21T13:31:25.143Z,10.70
2023-03-21T13:36:31.293Z,11.40
2023-03-21T13:41:39.721Z,10.90
2023-03-21T13:46:56.540Z,13.90
2023-03-21T13:52:02.380Z,10.80
2023-03-21T13:57:06.657Z,10.30
2023-03-21T14:02:15.782Z,9.10
2023-03-21T14:07:27.875Z,9.50
2023-03-21T14:12:39.741Z,12.30
2023-03-21T14:18:21.348Z,11.20
2023-03-21T14:23:31.691Z,9.40
2023-03-21T14:28:36.339Z,9.80
2023-03-21T14:33:43.835Z,9.80
2023-03-21T14:39:18.186Z,10.70
2023-03-21T14:44:28.218Z,20.10
2023-03-21T14:49:34.025Z,10.50
2023-03-21T14:54:41.338Z,10.70
2023-03-21T14:59:48.512Z,9.60
2023-03-21T15:04:54.411Z,9.70
2023-03-21T15:10:18.134Z,12.40
2023-03-21T15:15:25.986Z,29.00
2023-03-21T15:20:34.161Z,11.40
2023-03-21T15:25:38.414Z,24.00
2023-03-21T15:30:49.900Z,35.70
2023-03-21T15:35:56.520Z,11.30
2023-03-21T15:41:19.790Z,25.80
2023-03-21T15:46:43.647Z,12.90
2023-03-21T15:51:52.590Z,52.60
2023-03-21T15:57:01.425Z,23.40
2023-03-21T16:02:05.864Z,16.10
2023-03-21T16:07:17.446Z,11.70
2023-03-21T16:12:20.607Z,9.70
2023-03-21T16:17:37.857Z,12.70
2023-03-21T16:22:41.598Z,10.70
2023-03-21T16:27:45.994Z,9.20
2023-03-21T16:32:52.520Z,9.90
2023-03-21T16:37:55.439Z,10.10
2023-03-21T16:42:58.436Z,12.20
2023-03-21T16:48:02.002Z,12.40
2023-03-21T16:53:05.749Z,12.40
2023-03-21T16:58:08.985Z,9.30
2023-03-21T17:03:19.391Z,9.80
2023-03-21T17:13:25.834Z,10.80
2023-03-21T17:18:29.498Z,15.40
2023-03-21T17:23:32.402Z,23.10
2023-03-21T17:28:36.012Z,19.60
2023-03-21T17:33:39.058Z,13.20
2023-03-21T17:38:42.778Z,17.60
2023-03-21T17:43:45.938Z,15.00
2023-03-21T17:48:49.536Z,23.10
2023-03-21T17:53:52.489Z,28.80
2023-03-21T17:58:56.877Z,25.80
2023-03-21T18:04:03.012Z,20.50
2023-03-21T18:09:11.456Z,24.40
2023-03-21T18:14:18.220Z,25.50
2023-03-21T18:19:22.283Z,29.50
2023-03-21T18:24:25.576Z,23.90
2023-03-21T18:34:52.610Z,22.80
2023-03-21T18:39:56.325Z,17.40
2023-03-21T18:44:59.823Z,17.40
2023-03-21T18:50:14.402Z,16.90
2023-03-21T18:55:19.066Z,16.00
2023-03-21T19:00:23.767Z,19.90
2023-03-21T19:05:27.569Z,27.20
2023-03-21T19:10:31.138Z,31.40
2023-03-21T19:15:34.823Z,22.40
2023-03-21T19:20:42.788Z,18.00
2023-03-21T19:25:46.011Z,19.10
2023-03-21T19:30:50.771Z,26.60
2023-03-21T19:36:09.159Z,20.50
2023-03-21T19:41:14.497Z,26.30
2023-03-21T19:46:20.055Z,29.60
2023-03-21T19:51:29.717Z,31.80
2023-03-21T19:56:34.775Z,39.20
2023-03-21T20:01:38.117Z,30.90
2023-03-21T20:06:41.276Z,28.60
2023-03-21T20:11:44.289Z,26.00
2023-03-21T20:16:47.416Z,28.90
2023-03-21T20:21:57.876Z,24.80
2023-03-21T20:27:03.554Z,24.50
2023-03-21T20:32:07.682Z,18.60
2023-03-21T20:37:11.449Z,20.50
2023-03-21T20:42:14.607Z,30.70
2023-03-21T20:47:17.821Z,24.40
2023-03-21T20:57:44.406Z,21.40
2023-03-21T21:02:49.384Z,25.90
2023-03-21T21:07:53.114Z,27.10
2023-03-21T21:12:56.408Z,24.20
2023-03-21T21:18:08.154Z,22.10
2023-03-21T21:23:13.522Z,24.80
2023-03-21T21:28:17.924Z,22.90
2023-03-21T21:33:22.258Z,24.40
2023-03-21T21:38:26.801Z,18.60
2023-03-21T21:43:30.968Z,20.80
2023-03-21T21:48:34.572Z,25.90
2023-03-21T21:53:38.999Z,28.50
2023-03-21T21:58:47.945Z,30.20
2023-03-21T22:03:51.872Z,27.80
2023-03-21T22:08:54.873Z,30.60
2023-03-21T22:13:57.984Z,29.60
2023-03-21T22:19:01.092Z,22.40
2023-03-21T22:24:04.721Z,30.10
2023-03-21T22:29:08.433Z,23.90
2023-03-21T22:34:11.660Z,26.00
2023-03-21T22:39:14.614Z,30.70
2023-03-21T22:44:17.764Z,32.90
2023-03-21T22:49:20.976Z,29.20
2023-03-21T22:54:24.266Z,30.50
2023-03-21T22:59:27.413Z,31.00
2023-03-21T23:04:31.560Z,25.70
2023-03-21T23:09:35.157Z,28.50
2023-03-21T23:14:38.502Z,22.40
2023-03-21T23:19:41.682Z,25.30
2023-03-21T23:24:44.723Z,25.20
2023-03-21T23:29:47.804Z,26.90
2023-03-21T23:34:50.922Z,26.50
2023-03-21T23:39:55.339Z,29.50
2023-03-21T23:44:58.348Z,19.60
2023-03-21T23:50:01.360Z,24.80
2023-03-21T23:55:05.829Z,27.50
